Terminal Aerodrome Forecast
Issued by NWS Newport/Morehead City, NC

Home | Current Version | Previous Version | Graphics & Text | Print | Product List | Glossary On
Versions: 1 2 3 4 5 6 7 8 9 10 11 12 13 14 15
000
FTUS42 KMHX 212014 AAB
TAFEWN
TAF AMD
KEWN 212014Z 2120/2218 VRB04KT P6SM VCSH FEW010 SCT050
     FM212300 VRB02KT P6SM SCT080
     FM220800 00000KT 3SM BR SKC
     FM221300 00000KT P6SM SCT050=

USA.gov is the U.S. government's official web portal to all federal, state and local government web resources and services.